SDC weather

Williamson Sodus Airport
Williamson/Sodus, New York, United States

Public forecast

Using degrees Fahrenheit for public forecast. Weather courtesy of forecast.io.

Closest aviation weather report (METAR) to Williamson Sodus Airport

Closest report is Greater Rochester International Airport, 25.1 nm (46.5 km) WSW. Retrieved 2019/10/17 03:54 UTC (8 minutes ago):

KROC 170354Z 26006KT 10SM BKN050 08/06 A2945

Closest aviation forecast (TAF) to Williamson Sodus Airport

Closest forecast is Greater Rochester International Airport, 25.1 nm (46.5 km) WSW. Retrieved 2019-10-17 00:40 UTC (3 hours ago):

TAF KROC 162338Z 1700/1724 25008KT P6SM OVC035 FM170500 27010KT P6SM VCSH OVC025 FM170800 29016G24KT 6SM -SHRA BR OVC025 FM171300 30020G30KT 3SM SHRA BR OVC012 FM172000 29020G30KT P6SM VCSH OVC025